sensor_id;sensor_type;location;lat;lon;timestamp;temperature;humidity
11126;DHT22;5617;54.046;10.676;2022-12-01T00:00:20;5.50;99.90
11126;DHT22;5617;54.046;10.676;2022-12-01T00:02:28;5.50;99.90
11126;DHT22;5617;54.046;10.676;2022-12-01T00:04:35;5.50;99.90
11126;DHT22;5617;54.046;10.676;2022-12-01T00:06:41;5.50;99.90
11126;DHT22;5617;54.046;10.676;2022-12-01T00:08:50;5.50;99.90
11126;DHT22;5617;54.046;10.676;2022-12-01T00:11:24;5.50;99.90
11126;DHT22;5617;54.046;10.676;2022-12-01T00:13:31;5.50;99.90
11126;DHT22;5617;54.046;10.676;2022-12-01T00:15:38;5.40;99.90
11126;DHT22;5617;54.046;10.676;2022-12-01T00:17:45;5.30;99.90
11126;DHT22;5617;54.046;10.676;2022-12-01T00:19:53;5.30;99.90
11126;DHT22;5617;54.046;10.676;2022-12-01T00:22:00;5.30;99.90
11126;DHT22;5617;54.046;10.676;2022-12-01T00:24:09;5.30;99.90
11126;DHT22;5617;54.046;10.676;2022-12-01T00:26:17;5.20;99.90
11126;DHT22;5617;54.046;10.676;2022-12-01T00:28:26;5.20;99.90
11126;DHT22;5617;54.046;10.676;2022-12-01T00:30:33;5.20;99.90
11126;DHT22;5617;54.046;10.676;2022-12-01T00:32:40;5.20;99.90
11126;DHT22;5617;54.046;10.676;2022-12-01T00:34:47;5.10;99.90
11126;DHT22;5617;54.046;10.676;2022-12-01T00:36:54;5.10;99.90
11126;DHT22;5617;54.046;10.676;2022-12-01T00:39:01;5.20;99.90
11126;DHT22;5617;54.046;10.676;2022-12-01T00:41:08;5.20;99.90
11126;DHT22;5617;54.046;10.676;2022-12-01T00:43:15;5.20;99.90
11126;DHT22;5617;54.046;10.676;2022-12-01T00:45:23;5.20;99.90
11126;DHT22;5617;54.046;10.676;2022-12-01T00:47:30;5.20;99.90
11126;DHT22;5617;54.046;10.676;2022-12-01T00:49:37;5.20;99.90
11126;DHT22;5617;54.046;10.676;2022-12-01T00:51:44;5.20;99.90
11126;DHT22;5617;54.046;10.676;2022-12-01T00:53:51;5.20;99.90
11126;DHT22;5617;54.046;10.676;2022-12-01T00:55:58;5.30;99.90
11126;DHT22;5617;54.046;10.676;2022-12-01T00:58:05;5.20;99.90
11126;DHT22;5617;54.046;10.676;2022-12-01T01:00:13;5.20;99.90
11126;DHT22;5617;54.046;10.676;2022-12-01T01:02:22;5.20;99.90
11126;DHT22;5617;54.046;10.676;2022-12-01T01:04:29;5.30;99.90
11126;DHT22;5617;54.046;10.676;2022-12-01T01:06:36;5.20;99.90
11126;DHT22;5617;54.046;10.676;2022-12-01T01:08:43;5.30;99.90
11126;DHT22;5617;54.046;10.676;2022-12-01T01:10:50;5.30;99.90
11126;DHT22;5617;54.046;10.676;2022-12-01T01:12:57;5.30;99.90
11126;DHT22;5617;54.046;10.676;2022-12-01T01:15:05;5.30;99.90
11126;DHT22;5617;54.046;10.676;2022-12-01T01:17:12;5.30;99.90
11126;DHT22;5617;54.046;10.676;2022-12-01T01:19:20;5.30;99.90
11126;DHT22;5617;54.046;10.676;2022-12-01T01:21:28;5.20;99.90
11126;DHT22;5617;54.046;10.676;2022-12-01T01:23:34;5.30;99.90
11126;DHT22;5617;54.046;10.676;2022-12-01T01:25:41;5.30;99.90
11126;DHT22;5617;54.046;10.676;2022-12-01T01:27:48;5.30;99.90
11126;DHT22;5617;54.046;10.676;2022-12-01T01:29:55;5.30;99.90
11126;DHT22;5617;54.046;10.676;2022-12-01T01:32:02;5.30;99.90
11126;DHT22;5617;54.046;10.676;2022-12-01T01:34:09;5.30;99.90
11126;DHT22;5617;54.046;10.676;2022-12-01T01:36:18;5.30;99.90
11126;DHT22;5617;54.046;10.676;2022-12-01T01:38:25;5.30;99.90
11126;DHT22;5617;54.046;10.676;2022-12-01T01:40:32;5.30;99.90
11126;DHT22;5617;54.046;10.676;2022-12-01T01:42:39;5.30;99.90
11126;DHT22;5617;54.046;10.676;2022-12-01T01:44:49;5.30;99.90
11126;DHT22;5617;54.046;10.676;2022-12-01T01:46:56;5.30;99.90
11126;DHT22;5617;54.046;10.676;2022-12-01T01:49:05;5.30;99.90
11126;DHT22;5617;54.046;10.676;2022-12-01T01:51:14;5.20;99.90
11126;DHT22;5617;54.046;10.676;2022-12-01T01:53:25;5.20;99.90
11126;DHT22;5617;54.046;10.676;2022-12-01T01:55:33;5.20;99.90
11126;DHT22;5617;54.046;10.676;2022-12-01T01:57:41;5.20;99.90
11126;DHT22;5617;54.046;10.676;2022-12-01T01:59:51;5.20;99.90
11126;DHT22;5617;54.046;10.676;2022-12-01T02:02:01;5.20;99.90
11126;DHT22;5617;54.046;10.676;2022-12-01T02:04:11;5.20;99.90
11126;DHT22;5617;54.046;10.676;2022-12-01T02:06:19;5.30;99.90
11126;DHT22;5617;54.046;10.676;2022-12-01T02:08:28;5.20;99.90
11126;DHT22;5617;54.046;10.676;2022-12-01T02:10:48;5.20;99.90
11126;DHT22;5617;54.046;10.676;2022-12-01T02:13:04;5.20;99.90
11126;DHT22;5617;54.046;10.676;2022-12-01T02:15:21;5.20;99.90
11126;DHT22;5617;54.046;10.676;2022-12-01T02:17:34;5.20;99.90
11126;DHT22;5617;54.046;10.676;2022-12-01T02:20:02;5.30;99.90
11126;DHT22;5617;54.046;10.676;2022-12-01T02:22:21;5.30;99.90
11126;DHT22;5617;54.046;10.676;2022-12-01T02:24:51;5.30;99.90
11126;DHT22;5617;54.046;10.676;2022-12-01T02:27:03;5.20;99.90
11126;DHT22;5617;54.046;10.676;2022-12-01T02:32:02;5.30;99.90
11126;DHT22;5617;54.046;10.676;2022-12-01T02:34:15;5.30;99.90
11126;DHT22;5617;54.046;10.676;2022-12-01T02:36:32;5.30;99.90
11126;DHT22;5617;54.046;10.676;2022-12-01T02:38:45;5.30;99.90
11126;DHT22;5617;54.046;10.676;2022-12-01T02:40:56;5.30;99.90
11126;DHT22;5617;54.046;10.676;2022-12-01T02:43:11;5.30;99.90
11126;DHT22;5617;54.046;10.676;2022-12-01T02:45:31;5.30;99.90
11126;DHT22;5617;54.046;10.676;2022-12-01T02:47:41;5.30;99.90
11126;DHT22;5617;54.046;10.676;2022-12-01T02:49:51;5.30;99.90
11126;DHT22;5617;54.046;10.676;2022-12-01T02:52:01;5.30;99.90
11126;DHT22;5617;54.046;10.676;2022-12-01T02:54:11;5.30;99.90
11126;DHT22;5617;54.046;10.676;2022-12-01T02:56:20;5.30;99.90
11126;DHT22;5617;54.046;10.676;2022-12-01T02:58:27;5.30;99.90
11126;DHT22;5617;54.046;10.676;2022-12-01T03:00:34;5.30;99.90
11126;DHT22;5617;54.046;10.676;2022-12-01T03:05:18;5.40;99.90
11126;DHT22;5617;54.046;10.676;2022-12-01T03:07:41;5.30;99.90
11126;DHT22;5617;54.046;10.676;2022-12-01T03:09:58;5.40;99.90
11126;DHT22;5617;54.046;10.676;2022-12-01T03:12:14;5.40;99.90
11126;DHT22;5617;54.046;10.676;2022-12-01T03:14:33;5.40;99.90
11126;DHT22;5617;54.046;10.676;2022-12-01T03:16:48;5.40;99.90
11126;DHT22;5617;54.046;10.676;2022-12-01T03:18:59;5.40;99.90
11126;DHT22;5617;54.046;10.676;2022-12-01T03:21:16;5.40;99.90
11126;DHT22;5617;54.046;10.676;2022-12-01T03:23:29;5.40;99.90
11126;DHT22;5617;54.046;10.676;2022-12-01T03:25:39;5.40;99.90
11126;DHT22;5617;54.046;10.676;2022-12-01T03:27:48;5.40;99.90
11126;DHT22;5617;54.046;10.676;2022-12-01T03:30:02;5.40;99.90
11126;DHT22;5617;54.046;10.676;2022-12-01T03:32:13;5.40;99.90
11126;DHT22;5617;54.046;10.676;2022-12-01T03:34:27;5.40;99.90
11126;DHT22;5617;54.046;10.676;2022-12-01T03:36:39;5.40;99.90
11126;DHT22;5617;54.046;10.676;2022-12-01T03:38:53;5.40;99.90
11126;DHT22;5617;54.046;10.676;2022-12-01T03:41:04;5.40;99.90
11126;DHT22;5617;54.046;10.676;2022-12-01T03:43:15;5.40;99.90
11126;DHT22;5617;54.046;10.676;2022-12-01T03:45:29;5.40;99.90
11126;DHT22;5617;54.046;10.676;2022-12-01T03:47:37;5.40;99.90
11126;DHT22;5617;54.046;10.676;2022-12-01T03:49:46;5.40;99.90
11126;DHT22;5617;54.046;10.676;2022-12-01T03:51:59;5.40;99.90
11126;DHT22;5617;54.046;10.676;2022-12-01T03:54:17;5.40;99.90
11126;DHT22;5617;54.046;10.676;2022-12-01T03:56:29;5.40;99.90
11126;DHT22;5617;54.046;10.676;2022-12-01T03:58:40;5.40;99.90
11126;DHT22;5617;54.046;10.676;2022-12-01T04:00:48;5.40;99.90
11126;DHT22;5617;54.046;10.676;2022-12-01T04:03:01;5.50;99.90
11126;DHT22;5617;54.046;10.676;2022-12-01T04:05:11;5.50;99.90
11126;DHT22;5617;54.046;10.676;2022-12-01T04:07:18;5.50;99.90
11126;DHT22;5617;54.046;10.676;2022-12-01T04:09:25;5.50;99.90
11126;DHT22;5617;54.046;10.676;2022-12-01T04:11:32;5.40;99.90
11126;DHT22;5617;54.046;10.676;2022-12-01T04:13:57;5.50;99.90
11126;DHT22;5617;54.046;10.676;2022-12-01T04:16:04;5.40;99.90
11126;DHT22;5617;54.046;10.676;2022-12-01T04:18:11;5.40;99.90
11126;DHT22;5617;54.046;10.676;2022-12-01T04:20:20;5.50;99.90
11126;DHT22;5617;54.046;10.676;2022-12-01T04:22:27;5.50;99.90
11126;DHT22;5617;54.046;10.676;2022-12-01T04:24:34;5.50;99.90
11126;DHT22;5617;54.046;10.676;2022-12-01T04:26:41;5.40;99.90
11126;DHT22;5617;54.046;10.676;2022-12-01T04:28:49;5.40;99.90
11126;DHT22;5617;54.046;10.676;2022-12-01T04:30:55;5.40;99.90
11126;DHT22;5617;54.046;10.676;2022-12-01T04:33:02;5.40;99.90
11126;DHT22;5617;54.046;10.676;2022-12-01T04:35:11;5.50;99.90
11126;DHT22;5617;54.046;10.676;2022-12-01T04:37:20;5.50;99.90
11126;DHT22;5617;54.046;10.676;2022-12-01T04:39:26;5.50;99.90
11126;DHT22;5617;54.046;10.676;2022-12-01T04:41:33;5.50;99.90
11126;DHT22;5617;54.046;10.676;2022-12-01T04:43:41;5.40;99.90
11126;DHT22;5617;54.046;10.676;2022-12-01T04:45:48;5.40;99.90
11126;DHT22;5617;54.046;10.676;2022-12-01T04:47:55;5.40;99.90
11126;DHT22;5617;54.046;10.676;2022-12-01T04:50:02;5.40;99.90
11126;DHT22;5617;54.046;10.676;2022-12-01T04:52:09;5.30;99.90
11126;DHT22;5617;54.046;10.676;2022-12-01T04:54:18;5.30;99.90
11126;DHT22;5617;54.046;10.676;2022-12-01T04:56:24;5.40;99.90
11126;DHT22;5617;54.046;10.676;2022-12-01T04:58:32;5.30;99.90
11126;DHT22;5617;54.046;10.676;2022-12-01T05:00:40;5.30;99.90
11126;DHT22;5617;54.046;10.676;2022-12-01T05:02:48;5.30;99.90
11126;DHT22;5617;54.046;10.676;2022-12-01T05:04:55;5.40;99.90
11126;DHT22;5617;54.046;10.676;2022-12-01T05:07:01;5.40;99.90
11126;DHT22;5617;54.046;10.676;2022-12-01T05:09:11;5.40;99.90
11126;DHT22;5617;54.046;10.676;2022-12-01T05:11:20;5.40;99.90
11126;DHT22;5617;54.046;10.676;2022-12-01T05:13:27;5.40;99.90
11126;DHT22;5617;54.046;10.676;2022-12-01T05:15:34;5.40;99.90
11126;DHT22;5617;54.046;10.676;2022-12-01T05:17:41;5.50;99.90
11126;DHT22;5617;54.046;10.676;2022-12-01T05:19:48;5.50;99.90
11126;DHT22;5617;54.046;10.676;2022-12-01T05:22:12;5.50;99.90
11126;DHT22;5617;54.046;10.676;2022-12-01T05:24:20;5.50;99.90
11126;DHT22;5617;54.046;10.676;2022-12-01T05:26:28;5.40;99.90
11126;DHT22;5617;54.046;10.676;2022-12-01T05:28:35;5.40;99.90
11126;DHT22;5617;54.046;10.676;2022-12-01T05:30:43;5.40;99.90
11126;DHT22;5617;54.046;10.676;2022-12-01T05:32:50;5.40;99.90
11126;DHT22;5617;54.046;10.676;2022-12-01T05:34:57;5.40;99.90
11126;DHT22;5617;54.046;10.676;2022-12-01T05:37:04;5.40;99.90
11126;DHT22;5617;54.046;10.676;2022-12-01T05:39:11;5.40;99.90
11126;DHT22;5617;54.046;10.676;2022-12-01T05:41:18;5.30;99.90
11126;DHT22;5617;54.046;10.676;2022-12-01T05:43:26;5.20;99.90
11126;DHT22;5617;54.046;10.676;2022-12-01T05:45:33;5.20;99.90
11126;DHT22;5617;54.046;10.676;2022-12-01T05:47:40;5.20;99.90
11126;DHT22;5617;54.046;10.676;2022-12-01T05:49:47;5.10;99.90
11126;DHT22;5617;54.046;10.676;2022-12-01T05:51:54;5.10;99.90
11126;DHT22;5617;54.046;10.676;2022-12-01T05:54:02;5.10;99.90
11126;DHT22;5617;54.046;10.676;2022-12-01T05:56:09;5.00;99.90
11126;DHT22;5617;54.046;10.676;2022-12-01T05:58:16;5.00;99.90
11126;DHT22;5617;54.046;10.676;2022-12-01T06:00:24;5.00;99.90
11126;DHT22;5617;54.046;10.676;2022-12-01T06:02:31;5.00;99.90
11126;DHT22;5617;54.046;10.676;2022-12-01T06:04:38;5.00;99.90
11126;DHT22;5617;54.046;10.676;2022-12-01T06:06:45;4.90;99.90
11126;DHT22;5617;54.046;10.676;2022-12-01T06:08:52;5.00;99.90
11126;DHT22;5617;54.046;10.676;2022-12-01T06:10:59;5.00;99.90
11126;DHT22;5617;54.046;10.676;2022-12-01T06:13:06;4.90;99.90
11126;DHT22;5617;54.046;10.676;2022-12-01T06:15:13;4.90;99.90
11126;DHT22;5617;54.046;10.676;2022-12-01T06:17:21;5.00;99.90
11126;DHT22;5617;54.046;10.676;2022-12-01T06:19:28;4.90;99.90
11126;DHT22;5617;54.046;10.676;2022-12-01T06:21:35;4.90;99.90
11126;DHT22;5617;54.046;10.676;2022-12-01T06:23:43;5.00;99.90
11126;DHT22;5617;54.046;10.676;2022-12-01T06:25:50;5.00;99.90
11126;DHT22;5617;54.046;10.676;2022-12-01T06:27:57;5.00;99.90
11126;DHT22;5617;54.046;10.676;2022-12-01T06:30:05;5.00;99.90
11126;DHT22;5617;54.046;10.676;2022-12-01T06:32:12;5.00;99.90
11126;DHT22;5617;54.046;10.676;2022-12-01T06:34:20;5.00;99.90
11126;DHT22;5617;54.046;10.676;2022-12-01T06:36:27;5.00;99.90
11126;DHT22;5617;54.046;10.676;2022-12-01T06:38:35;5.00;99.90
11126;DHT22;5617;54.046;10.676;2022-12-01T06:40:42;4.90;99.90
11126;DHT22;5617;54.046;10.676;2022-12-01T06:42:50;4.90;99.90
11126;DHT22;5617;54.046;10.676;2022-12-01T06:44:57;4.90;99.90
11126;DHT22;5617;54.046;10.676;2022-12-01T06:47:03;4.90;99.90
11126;DHT22;5617;54.046;10.676;2022-12-01T06:49:12;4.80;99.90
11126;DHT22;5617;54.046;10.676;2022-12-01T06:51:21;4.80;99.90
11126;DHT22;5617;54.046;10.676;2022-12-01T06:53:28;4.80;99.90
11126;DHT22;5617;54.046;10.676;2022-12-01T06:55:35;4.80;99.90
11126;DHT22;5617;54.046;10.676;2022-12-01T06:57:42;4.80;99.90
11126;DHT22;5617;54.046;10.676;2022-12-01T06:59:49;4.80;99.90
11126;DHT22;5617;54.046;10.676;2022-12-01T07:01:56;4.80;99.90
11126;DHT22;5617;54.046;10.676;2022-12-01T07:04:03;4.90;99.90
11126;DHT22;5617;54.046;10.676;2022-12-01T07:06:10;4.90;99.90
11126;DHT22;5617;54.046;10.676;2022-12-01T07:08:18;4.90;99.90
11126;DHT22;5617;54.046;10.676;2022-12-01T07:10:25;4.90;99.90
11126;DHT22;5617;54.046;10.676;2022-12-01T07:12:32;4.90;99.90
11126;DHT22;5617;54.046;10.676;2022-12-01T07:14:40;4.90;99.90
11126;DHT22;5617;54.046;10.676;2022-12-01T07:16:47;4.90;99.90
11126;DHT22;5617;54.046;10.676;2022-12-01T07:18:54;4.90;99.90
11126;DHT22;5617;54.046;10.676;2022-12-01T07:21:02;4.90;99.90
11126;DHT22;5617;54.046;10.676;2022-12-01T07:23:10;4.90;99.90
11126;DHT22;5617;54.046;10.676;2022-12-01T07:25:18;4.90;99.90
11126;DHT22;5617;54.046;10.676;2022-12-01T07:27:28;4.90;99.90
11126;DHT22;5617;54.046;10.676;2022-12-01T07:29:35;4.90;99.90
11126;DHT22;5617;54.046;10.676;2022-12-01T07:31:42;4.90;99.90
11126;DHT22;5617;54.046;10.676;2022-12-01T07:33:50;4.80;99.90
11126;DHT22;5617;54.046;10.676;2022-12-01T07:35:57;4.80;99.90
11126;DHT22;5617;54.046;10.676;2022-12-01T07:38:04;4.80;99.90
11126;DHT22;5617;54.046;10.676;2022-12-01T07:40:11;4.80;99.90
11126;DHT22;5617;54.046;10.676;2022-12-01T07:42:20;4.80;99.90
11126;DHT22;5617;54.046;10.676;2022-12-01T07:44:27;4.90;99.90
11126;DHT22;5617;54.046;10.676;2022-12-01T07:46:34;4.80;99.90
11126;DHT22;5617;54.046;10.676;2022-12-01T07:48:41;4.80;99.90
11126;DHT22;5617;54.046;10.676;2022-12-01T07:50:48;4.80;99.90
11126;DHT22;5617;54.046;10.676;2022-12-01T07:52:55;4.80;99.90
11126;DHT22;5617;54.046;10.676;2022-12-01T07:55:02;4.80;99.90
11126;DHT22;5617;54.046;10.676;2022-12-01T07:57:09;4.80;99.90
11126;DHT22;5617;54.046;10.676;2022-12-01T07:59:20;4.80;99.90
11126;DHT22;5617;54.046;10.676;2022-12-01T08:01:27;4.80;99.90
11126;DHT22;5617;54.046;10.676;2022-12-01T08:03:35;4.80;99.90
11126;DHT22;5617;54.046;10.676;2022-12-01T08:05:43;4.80;99.90
11126;DHT22;5617;54.046;10.676;2022-12-01T08:07:52;4.80;99.90
11126;DHT22;5617;54.046;10.676;2022-12-01T08:09:59;4.80;99.90
11126;DHT22;5617;54.046;10.676;2022-12-01T08:12:06;4.80;99.90
11126;DHT22;5617;54.046;10.676;2022-12-01T08:14:14;4.80;99.90
11126;DHT22;5617;54.046;10.676;2022-12-01T08:16:23;4.80;99.90
11126;DHT22;5617;54.046;10.676;2022-12-01T08:18:30;4.80;99.90
11126;DHT22;5617;54.046;10.676;2022-12-01T08:20:39;4.70;99.90
11126;DHT22;5617;54.046;10.676;2022-12-01T08:22:46;4.70;99.90
11126;DHT22;5617;54.046;10.676;2022-12-01T08:24:52;4.70;99.90
11126;DHT22;5617;54.046;10.676;2022-12-01T08:26:59;4.70;99.90
11126;DHT22;5617;54.046;10.676;2022-12-01T08:29:06;4.70;99.90
11126;DHT22;5617;54.046;10.676;2022-12-01T08:31:15;4.70;99.90
11126;DHT22;5617;54.046;10.676;2022-12-01T08:33:24;4.80;99.90
11126;DHT22;5617;54.046;10.676;2022-12-01T08:35:34;4.80;99.90
11126;DHT22;5617;54.046;10.676;2022-12-01T08:37:41;4.70;99.90
11126;DHT22;5617;54.046;10.676;2022-12-01T08:39:48;4.70;99.90
11126;DHT22;5617;54.046;10.676;2022-12-01T08:41:54;4.60;99.90
11126;DHT22;5617;54.046;10.676;2022-12-01T08:44:01;4.60;99.90
11126;DHT22;5617;54.046;10.676;2022-12-01T08:46:09;4.60;99.90
11126;DHT22;5617;54.046;10.676;2022-12-01T08:48:16;4.60;99.90
11126;DHT22;5617;54.046;10.676;2022-12-01T08:50:25;4.60;99.90
11126;DHT22;5617;54.046;10.676;2022-12-01T08:52:32;4.60;99.90
11126;DHT22;5617;54.046;10.676;2022-12-01T08:54:39;4.70;99.90
11126;DHT22;5617;54.046;10.676;2022-12-01T08:56:46;4.70;99.90
11126;DHT22;5617;54.046;10.676;2022-12-01T08:58:54;4.70;99.90
11126;DHT22;5617;54.046;10.676;2022-12-01T09:01:02;4.70;99.90
11126;DHT22;5617;54.046;10.676;2022-12-01T09:03:09;4.70;99.90
11126;DHT22;5617;54.046;10.676;2022-12-01T09:05:16;4.70;99.90
11126;DHT22;5617;54.046;10.676;2022-12-01T09:07:24;4.70;99.90
11126;DHT22;5617;54.046;10.676;2022-12-01T09:09:34;4.60;99.90
11126;DHT22;5617;54.046;10.676;2022-12-01T09:11:42;4.50;99.90
11126;DHT22;5617;54.046;10.676;2022-12-01T09:13:49;4.50;99.90
11126;DHT22;5617;54.046;10.676;2022-12-01T09:15:57;4.50;99.90
11126;DHT22;5617;54.046;10.676;2022-12-01T09:18:04;4.50;99.90
11126;DHT22;5617;54.046;10.676;2022-12-01T09:20:12;4.50;99.90
11126;DHT22;5617;54.046;10.676;2022-12-01T09:22:19;4.60;99.90
11126;DHT22;5617;54.046;10.676;2022-12-01T09:24:27;4.60;99.90
11126;DHT22;5617;54.046;10.676;2022-12-01T09:26:35;4.60;99.90
11126;DHT22;5617;54.046;10.676;2022-12-01T09:28:41;4.60;99.90
11126;DHT22;5617;54.046;10.676;2022-12-01T09:30:48;4.50;99.90
11126;DHT22;5617;54.046;10.676;2022-12-01T09:32:56;4.50;99.90
11126;DHT22;5617;54.046;10.676;2022-12-01T09:35:04;4.50;99.90
11126;DHT22;5617;54.046;10.676;2022-12-01T09:37:11;4.50;99.90
11126;DHT22;5617;54.046;10.676;2022-12-01T09:39:19;4.60;99.90
11126;DHT22;5617;54.046;10.676;2022-12-01T09:41:30;4.60;99.90
11126;DHT22;5617;54.046;10.676;2022-12-01T09:43:39;4.60;99.90
11126;DHT22;5617;54.046;10.676;2022-12-01T09:45:49;4.60;99.90
11126;DHT22;5617;54.046;10.676;2022-12-01T09:47:59;4.60;99.90
11126;DHT22;5617;54.046;10.676;2022-12-01T09:50:10;4.60;99.90
11126;DHT22;5617;54.046;10.676;2022-12-01T09:52:19;4.60;99.90
11126;DHT22;5617;54.046;10.676;2022-12-01T09:54:28;4.60;99.90
11126;DHT22;5617;54.046;10.676;2022-12-01T09:56:40;4.60;99.90
11126;DHT22;5617;54.046;10.676;2022-12-01T09:58:51;4.60;99.90
11126;DHT22;5617;54.046;10.676;2022-12-01T10:01:00;4.50;99.90
11126;DHT22;5617;54.046;10.676;2022-12-01T10:03:18;4.50;99.90
11126;DHT22;5617;54.046;10.676;2022-12-01T10:05:41;4.40;99.90
11126;DHT22;5617;54.046;10.676;2022-12-01T10:07:53;4.50;99.90
11126;DHT22;5617;54.046;10.676;2022-12-01T10:10:04;4.50;99.90
11126;DHT22;5617;54.046;10.676;2022-12-01T10:12:15;4.50;99.90
11126;DHT22;5617;54.046;10.676;2022-12-01T10:14:23;4.50;99.90
11126;DHT22;5617;54.046;10.676;2022-12-01T10:16:34;4.50;99.90
11126;DHT22;5617;54.046;10.676;2022-12-01T10:18:50;4.50;99.90
11126;DHT22;5617;54.046;10.676;2022-12-01T10:21:05;4.50;99.90
11126;DHT22;5617;54.046;10.676;2022-12-01T10:23:27;4.50;99.90
11126;DHT22;5617;54.046;10.676;2022-12-01T10:25:43;4.50;99.90
11126;DHT22;5617;54.046;10.676;2022-12-01T10:28:05;4.40;99.90
11126;DHT22;5617;54.046;10.676;2022-12-01T10:30:15;4.40;99.90
11126;DHT22;5617;54.046;10.676;2022-12-01T10:32:28;4.40;99.90
11126;DHT22;5617;54.046;10.676;2022-12-01T10:34:39;4.40;99.90
11126;DHT22;5617;54.046;10.676;2022-12-01T10:36:47;4.40;99.90
11126;DHT22;5617;54.046;10.676;2022-12-01T10:38:54;4.40;99.90
11126;DHT22;5617;54.046;10.676;2022-12-01T10:41:03;4.40;99.90
11126;DHT22;5617;54.046;10.676;2022-12-01T10:43:13;4.40;99.90
11126;DHT22;5617;54.046;10.676;2022-12-01T10:45:23;4.40;99.90
11126;DHT22;5617;54.046;10.676;2022-12-01T10:47:31;4.40;99.90
11126;DHT22;5617;54.046;10.676;2022-12-01T10:49:39;4.30;99.90
11126;DHT22;5617;54.046;10.676;2022-12-01T10:51:52;4.30;99.90
11126;DHT22;5617;54.046;10.676;2022-12-01T10:54:06;4.30;99.90
11126;DHT22;5617;54.046;10.676;2022-12-01T10:56:18;4.20;99.90
11126;DHT22;5617;54.046;10.676;2022-12-01T10:58:27;4.10;99.90
11126;DHT22;5617;54.046;10.676;2022-12-01T11:00:36;4.10;99.90
11126;DHT22;5617;54.046;10.676;2022-12-01T11:02:44;4.20;99.90
11126;DHT22;5617;54.046;10.676;2022-12-01T11:04:53;4.20;99.90
11126;DHT22;5617;54.046;10.676;2022-12-01T11:07:02;4.20;99.90
11126;DHT22;5617;54.046;10.676;2022-12-01T11:09:18;4.20;99.90
11126;DHT22;5617;54.046;10.676;2022-12-01T11:11:29;4.20;99.90
11126;DHT22;5617;54.046;10.676;2022-12-01T11:13:41;4.20;99.90
11126;DHT22;5617;54.046;10.676;2022-12-01T11:15:50;4.10;99.90
11126;DHT22;5617;54.046;10.676;2022-12-01T11:17:59;4.10;99.90
11126;DHT22;5617;54.046;10.676;2022-12-01T11:20:29;4.10;99.90
11126;DHT22;5617;54.046;10.676;2022-12-01T11:22:36;4.00;99.90
11126;DHT22;5617;54.046;10.676;2022-12-01T11:24:46;4.10;99.90
11126;DHT22;5617;54.046;10.676;2022-12-01T11:27:01;4.10;99.90
11126;DHT22;5617;54.046;10.676;2022-12-01T11:29:23;4.20;99.90
11126;DHT22;5617;54.046;10.676;2022-12-01T11:31:37;4.10;99.90
11126;DHT22;5617;54.046;10.676;2022-12-01T11:33:49;4.10;99.90
11126;DHT22;5617;54.046;10.676;2022-12-01T11:35:57;4.10;99.90
11126;DHT22;5617;54.046;10.676;2022-12-01T11:38:05;4.10;99.90
11126;DHT22;5617;54.046;10.676;2022-12-01T11:40:17;4.10;99.90
11126;DHT22;5617;54.046;10.676;2022-12-01T11:42:27;4.10;99.90
11126;DHT22;5617;54.046;10.676;2022-12-01T11:44:37;4.10;99.90
11126;DHT22;5617;54.046;10.676;2022-12-01T11:46:45;4.10;99.90
11126;DHT22;5617;54.046;10.676;2022-12-01T11:48:57;4.10;99.90
11126;DHT22;5617;54.046;10.676;2022-12-01T11:51:06;4.10;99.90
11126;DHT22;5617;54.046;10.676;2022-12-01T11:53:26;4.10;99.90
11126;DHT22;5617;54.046;10.676;2022-12-01T11:55:33;4.00;99.90
11126;DHT22;5617;54.046;10.676;2022-12-01T11:57:42;4.00;99.90
11126;DHT22;5617;54.046;10.676;2022-12-01T11:59:51;4.00;99.90
11126;DHT22;5617;54.046;10.676;2022-12-01T12:02:12;4.10;99.90
11126;DHT22;5617;54.046;10.676;2022-12-01T12:04:38;4.00;99.90
11126;DHT22;5617;54.046;10.676;2022-12-01T12:06:52;4.00;99.90
11126;DHT22;5617;54.046;10.676;2022-12-01T12:09:15;4.00;99.90
11126;DHT22;5617;54.046;10.676;2022-12-01T12:11:29;3.90;99.90
11126;DHT22;5617;54.046;10.676;2022-12-01T12:13:52;3.90;99.90
11126;DHT22;5617;54.046;10.676;2022-12-01T12:16:10;3.90;99.90
11126;DHT22;5617;54.046;10.676;2022-12-01T12:18:42;3.90;99.90
11126;DHT22;5617;54.046;10.676;2022-12-01T12:21:01;3.90;99.90
11126;DHT22;5617;54.046;10.676;2022-12-01T12:23:25;4.00;99.90
11126;DHT22;5617;54.046;10.676;2022-12-01T12:25:45;4.00;99.90
11126;DHT22;5617;54.046;10.676;2022-12-01T12:28:06;4.00;99.90
11126;DHT22;5617;54.046;10.676;2022-12-01T12:30:20;4.10;99.90
11126;DHT22;5617;54.046;10.676;2022-12-01T12:35:22;4.10;99.90
11126;DHT22;5617;54.046;10.676;2022-12-01T12:37:38;4.10;99.90
11126;DHT22;5617;54.046;10.676;2022-12-01T12:40:09;4.10;99.90
11126;DHT22;5617;54.046;10.676;2022-12-01T12:42:27;4.20;99.90
11126;DHT22;5617;54.046;10.676;2022-12-01T12:44:45;4.20;99.90
11126;DHT22;5617;54.046;10.676;2022-12-01T12:47:02;4.30;99.90
11126;DHT22;5617;54.046;10.676;2022-12-01T12:49:26;4.30;99.90
11126;DHT22;5617;54.046;10.676;2022-12-01T12:51:38;4.30;99.90
11126;DHT22;5617;54.046;10.676;2022-12-01T12:53:51;4.30;99.90
11126;DHT22;5617;54.046;10.676;2022-12-01T12:56:04;4.30;99.90
11126;DHT22;5617;54.046;10.676;2022-12-01T12:58:19;4.30;99.90
11126;DHT22;5617;54.046;10.676;2022-12-01T13:00:28;4.30;99.90
11126;DHT22;5617;54.046;10.676;2022-12-01T13:02:44;4.30;99.90
11126;DHT22;5617;54.046;10.676;2022-12-01T13:04:57;4.30;99.90
11126;DHT22;5617;54.046;10.676;2022-12-01T13:07:12;4.30;99.90
11126;DHT22;5617;54.046;10.676;2022-12-01T13:09:27;4.30;99.90
11126;DHT22;5617;54.046;10.676;2022-12-01T13:11:40;4.30;99.90
11126;DHT22;5617;54.046;10.676;2022-12-01T13:13:56;4.30;99.90
11126;DHT22;5617;54.046;10.676;2022-12-01T13:16:08;4.20;99.90
11126;DHT22;5617;54.046;10.676;2022-12-01T13:18:25;4.30;99.90
11126;DHT22;5617;54.046;10.676;2022-12-01T13:20:34;4.30;99.90
11126;DHT22;5617;54.046;10.676;2022-12-01T13:22:43;4.30;99.90
11126;DHT22;5617;54.046;10.676;2022-12-01T13:24:51;4.20;99.90
11126;DHT22;5617;54.046;10.676;2022-12-01T13:27:00;4.20;99.90
11126;DHT22;5617;54.046;10.676;2022-12-01T13:29:14;4.20;99.90
11126;DHT22;5617;54.046;10.676;2022-12-01T13:31:23;4.20;99.90
11126;DHT22;5617;54.046;10.676;2022-12-01T13:33:30;4.30;99.90
11126;DHT22;5617;54.046;10.676;2022-12-01T13:35:39;4.30;99.90
11126;DHT22;5617;54.046;10.676;2022-12-01T13:37:46;4.30;99.90
11126;DHT22;5617;54.046;10.676;2022-12-01T13:39:54;4.30;99.90
11126;DHT22;5617;54.046;10.676;2022-12-01T13:42:04;4.30;99.90
11126;DHT22;5617;54.046;10.676;2022-12-01T13:44:20;4.30;99.90
11126;DHT22;5617;54.046;10.676;2022-12-01T13:46:30;4.30;99.90
11126;DHT22;5617;54.046;10.676;2022-12-01T13:48:49;4.40;99.90
11126;DHT22;5617;54.046;10.676;2022-12-01T13:51:00;4.40;99.90
11126;DHT22;5617;54.046;10.676;2022-12-01T13:53:10;4.40;99.90
11126;DHT22;5617;54.046;10.676;2022-12-01T13:55:26;4.40;99.90
11126;DHT22;5617;54.046;10.676;2022-12-01T13:57:35;4.40;99.90
11126;DHT22;5617;54.046;10.676;2022-12-01T14:00:02;4.40;99.90
11126;DHT22;5617;54.046;10.676;2022-12-01T14:02:17;4.40;99.90